createdAt,value
2022-09-11T00:02:47.420Z,97579.88
2022-09-11T00:07:49.028Z,97581.69
2022-09-11T00:12:50.895Z,97580.84
2022-09-11T00:17:52.410Z,97571.34
2022-09-11T00:22:54.390Z,97566.44
2022-09-11T00:27:56.053Z,97568.78
2022-09-11T00:32:58.237Z,97569.00
2022-09-11T00:37:59.803Z,97570.28
2022-09-11T00:43:01.427Z,97567.75
2022-09-11T00:48:04.037Z,97567.78
2022-09-11T00:53:09.874Z,97573.34
2022-09-11T00:58:16.524Z,97565.59
2022-09-11T01:03:19.471Z,97566.00
2022-09-11T01:08:22.667Z,97567.03
2022-09-11T01:13:35.813Z,97568.72
2022-09-11T01:19:03.981Z,97570.00
2022-09-11T01:24:31.307Z,97570.09
2022-09-11T01:29:52.498Z,97570.91
2022-09-11T01:35:08.253Z,97570.41
2022-09-11T01:40:21.614Z,97566.06
2022-09-11T01:45:25.610Z,97560.00
2022-09-11T01:50:30.510Z,97564.41
2022-09-11T01:55:40.171Z,97577.69
2022-09-11T02:00:45.959Z,97579.09
2022-09-11T02:05:51.971Z,97574.00
2022-09-11T02:11:09.069Z,97567.56
2022-09-11T02:16:38.693Z,97571.72
2022-09-11T02:21:40.723Z,97567.94
2022-09-11T02:26:47.267Z,97566.22
2022-09-11T02:31:49.281Z,97574.88
2022-09-11T02:37:06.568Z,97570.09
2022-09-11T02:42:12.320Z,97573.19
2022-09-11T02:47:42.195Z,97570.16
2022-09-11T02:52:56.322Z,97565.16
2022-09-11T02:58:30.657Z,97568.22
2022-09-11T03:03:46.190Z,97571.84
2022-09-11T03:08:48.913Z,97575.25
2022-09-11T03:13:51.917Z,97582.06
2022-09-11T03:18:54.119Z,97585.19
2022-09-11T03:23:56.069Z,97578.84
2022-09-11T03:28:57.695Z,97585.44
2022-09-11T03:33:59.543Z,97582.34
2022-09-11T03:39:01.785Z,97577.78
2022-09-11T03:44:04.930Z,97583.59
2022-09-11T03:49:06.570Z,97592.84
2022-09-11T03:54:08.234Z,97596.47
2022-09-11T03:59:10.111Z,97593.88
2022-09-11T04:04:13.123Z,97601.13
2022-09-11T04:09:17.692Z,97604.38
2022-09-11T04:14:23.818Z,97605.84
2022-09-11T04:19:27.206Z,97604.44
2022-09-11T04:24:29.192Z,97623.53
2022-09-11T04:29:33.997Z,97622.47
2022-09-11T04:34:35.910Z,97624.84
2022-09-11T04:39:37.714Z,97628.19
2022-09-11T04:44:39.319Z,97634.56
2022-09-11T04:49:41.083Z,97634.97
2022-09-11T04:54:46.162Z,97633.06
2022-09-11T04:59:51.601Z,97638.56
2022-09-11T05:04:53.447Z,97641.56
2022-09-11T05:09:55.185Z,97650.34
2022-09-11T05:14:57.233Z,97653.78
2022-09-11T05:19:58.911Z,97661.44
2022-09-11T05:25:01.029Z,97664.34
2022-09-11T05:30:03.586Z,97669.31
2022-09-11T05:35:07.164Z,97667.78
2022-09-11T05:40:10.052Z,97679.03
2022-09-11T05:45:11.944Z,97693.00
2022-09-11T05:50:14.736Z,97688.88
2022-09-11T05:55:16.985Z,97698.16
2022-09-11T06:00:19.430Z,97708.22
2022-09-11T06:05:30.674Z,97712.66
2022-09-11T06:10:34.200Z,97727.97
2022-09-11T06:15:46.691Z,97729.94
2022-09-11T06:21:02.910Z,97733.19
2022-09-11T06:26:13.130Z,97734.19
2022-09-11T06:31:20.102Z,97737.41
2022-09-11T06:36:26.730Z,97735.56
2022-09-11T06:41:30.328Z,97752.88
2022-09-11T06:46:37.865Z,97744.47
2022-09-11T06:51:40.074Z,97742.84
2022-09-11T06:56:42.209Z,97752.09
2022-09-11T07:01:44.430Z,97743.78
2022-09-11T07:06:47.217Z,97755.88
2022-09-11T07:11:49.962Z,97751.50
2022-09-11T07:16:55.046Z,97756.94
2022-09-11T07:21:56.648Z,97769.44
2022-09-11T07:27:00.854Z,97767.59
2022-09-11T07:32:08.554Z,97763.56
2022-09-11T07:37:10.199Z,97771.25
2022-09-11T07:42:13.192Z,97781.72
2022-09-11T07:47:16.880Z,97782.50
2022-09-11T07:52:22.776Z,97786.13
2022-09-11T07:57:32.207Z,97790.44
2022-09-11T08:02:37.302Z,97793.25
2022-09-11T08:07:39.014Z,97801.31
2022-09-11T08:12:41.956Z,97811.84
2022-09-11T08:17:43.514Z,97817.78
2022-09-11T08:22:45.178Z,97822.66
2022-09-11T08:27:46.953Z,97829.03
2022-09-11T08:32:52.151Z,97844.47
2022-09-11T08:37:55.593Z,97847.03
2022-09-11T08:43:01.888Z,97847.44
2022-09-11T08:48:07.008Z,97850.50
2022-09-11T08:53:15.430Z,97852.84
2022-09-11T08:58:29.760Z,97856.72
2022-09-11T09:03:57.105Z,97865.22
2022-09-11T09:09:10.959Z,97866.59
2022-09-11T09:14:32.043Z,97867.47
2022-09-11T09:19:39.952Z,97861.44
2022-09-11T09:24:49.632Z,97868.94
2022-09-11T09:29:55.806Z,97872.25
2022-09-11T09:35:05.126Z,97885.63
2022-09-11T09:40:10.383Z,97881.28
2022-09-11T09:45:33.772Z,97889.00
2022-09-11T09:50:39.675Z,97886.47
2022-09-11T09:55:42.698Z,97888.44
2022-09-11T10:00:45.103Z,97897.81
2022-09-11T10:05:48.962Z,97893.16
2022-09-11T10:10:59.223Z,97896.69
2022-09-11T10:16:03.886Z,97911.34
2022-09-11T10:21:11.651Z,97917.88
2022-09-11T10:26:17.158Z,97922.72
2022-09-11T10:31:18.975Z,97922.41
2022-09-11T10:36:27.165Z,97913.25
2022-09-11T10:41:34.234Z,97927.63
2022-09-11T10:46:38.104Z,97939.34
2022-09-11T10:51:46.778Z,97936.38
2022-09-11T10:57:05.306Z,97939.97
2022-09-11T11:02:36.972Z,97943.34
2022-09-11T11:07:58.921Z,97949.75
2022-09-11T11:13:36.027Z,97942.50
2022-09-11T11:19:10.832Z,97950.78
2022-09-11T11:24:50.077Z,97952.63
2022-09-11T11:30:21.771Z,97959.28
2022-09-11T11:35:29.132Z,97961.50
2022-09-11T11:40:32.525Z,97965.81
2022-09-11T11:45:41.956Z,97967.22
2022-09-11T11:50:59.510Z,97982.78
2022-09-11T11:56:17.711Z,97976.34
2022-09-11T12:01:48.697Z,97981.19
2022-09-11T12:06:51.043Z,97990.19
2022-09-11T12:11:55.285Z,97986.47
2022-09-11T12:16:57.133Z,97996.91
2022-09-11T12:22:11.059Z,97999.72
2022-09-11T12:27:33.683Z,98006.03
2022-09-11T12:32:55.106Z,98005.09
2022-09-11T12:38:02.659Z,98000.09
2022-09-11T12:43:20.450Z,97998.63
2022-09-11T12:48:25.990Z,98004.06
2022-09-11T12:53:31.218Z,98007.81
2022-09-11T12:58:40.779Z,97995.47
2022-09-11T13:03:53.362Z,97996.81
2022-09-11T13:09:02.086Z,97998.91
2022-09-11T13:14:06.647Z,98002.34
2022-09-11T13:19:14.268Z,97996.06
2022-09-11T13:24:27.015Z,98001.81
2022-09-11T13:29:30.459Z,97997.06
2022-09-11T13:34:35.946Z,97998.34
2022-09-11T13:39:42.221Z,98005.91
2022-09-11T13:44:47.242Z,97994.28
2022-09-11T13:49:53.275Z,97990.94
2022-09-11T13:55:03.371Z,97990.44
2022-09-11T14:00:05.197Z,97991.19
2022-09-11T14:05:16.823Z,97986.91
2022-09-11T14:10:22.473Z,97990.38
2022-09-11T14:15:33.656Z,97982.84
2022-09-11T14:20:41.514Z,97985.72
2022-09-11T14:26:08.499Z,97984.13
2022-09-11T14:31:13.166Z,97985.81
2022-09-11T14:36:20.085Z,97996.06
2022-09-11T14:41:21.717Z,97991.41
2022-09-11T14:46:23.230Z,97996.59
2022-09-11T14:51:24.790Z,97992.38
2022-09-11T14:56:26.445Z,97991.56
2022-09-11T15:01:28.152Z,97984.69
2022-09-11T15:06:31.108Z,97987.78
2022-09-11T15:11:37.418Z,97977.88
2022-09-11T15:16:42.295Z,97975.50
2022-09-11T15:21:43.843Z,97978.97
2022-09-11T15:26:46.460Z,97981.06
2022-09-11T15:32:00.644Z,97970.97
2022-09-11T15:37:02.558Z,97971.59
2022-09-11T15:42:04.338Z,97966.66
2022-09-11T15:47:06.151Z,97965.53
2022-09-11T15:52:07.898Z,97967.59
2022-09-11T15:57:09.497Z,97960.16
2022-09-11T16:02:11.998Z,97966.34
2022-09-11T16:07:14.193Z,97967.66
2022-09-11T16:12:15.845Z,97967.53
2022-09-11T16:17:20.537Z,97964.19
2022-09-11T16:22:22.174Z,97951.09
2022-09-11T16:27:24.400Z,97966.88
2022-09-11T16:32:31.781Z,97967.72
2022-09-11T16:37:34.028Z,97967.53
2022-09-11T16:42:35.768Z,97967.34
2022-09-11T16:47:37.336Z,97962.72
2022-09-11T16:52:39.279Z,97966.97
2022-09-11T16:57:40.871Z,97958.47
2022-09-11T17:02:42.395Z,97960.59
2022-09-11T17:07:43.900Z,97965.34
2022-09-11T17:12:45.410Z,97962.16
2022-09-11T17:17:47.315Z,97953.97
2022-09-11T17:22:48.864Z,97959.63
2022-09-11T17:27:50.838Z,97957.25
2022-09-11T17:32:52.674Z,97956.28
2022-09-11T17:37:54.480Z,97955.84
2022-09-11T17:42:55.981Z,97960.97
2022-09-11T17:47:57.733Z,97956.47
2022-09-11T17:52:59.277Z,97969.03
2022-09-11T17:58:00.809Z,97977.41
2022-09-11T18:03:02.308Z,97986.22
2022-09-11T18:08:03.843Z,97981.41
2022-09-11T18:13:05.530Z,97990.81
2022-09-11T18:18:07.054Z,97990.03
2022-09-11T18:23:09.795Z,97990.84
2022-09-11T18:28:11.847Z,97989.22
2022-09-11T18:33:14.540Z,97988.75
2022-09-11T18:38:16.111Z,98001.31
2022-09-11T18:43:18.031Z,98009.25
2022-09-11T18:48:20.053Z,98012.38
2022-09-11T18:53:21.949Z,98016.31
2022-09-11T18:58:23.506Z,98012.06
2022-09-11T19:03:30.063Z,97994.69
2022-09-11T19:08:32.355Z,98002.31
2022-09-11T19:13:33.957Z,97997.13
2022-09-11T19:18:37.010Z,98009.69
2022-09-11T19:23:41.482Z,98013.88
2022-09-11T19:28:44.673Z,98009.19
2022-09-11T19:33:46.368Z,98015.66
2022-09-11T19:38:49.677Z,98016.38
2022-09-11T19:43:51.336Z,98013.91
2022-09-11T19:48:56.694Z,98022.91
2022-09-11T19:54:00.469Z,98016.66
2022-09-11T19:59:03.063Z,98009.50
2022-09-11T20:04:04.874Z,98016.66
2022-09-11T20:14:29.119Z,98019.84
2022-09-11T20:19:30.679Z,98004.06
2022-09-11T20:24:32.217Z,98017.09
2022-09-11T20:29:33.974Z,98009.81
2022-09-11T20:34:35.521Z,98018.78
2022-09-11T20:39:38.663Z,98019.53
2022-09-11T20:44:40.283Z,98025.81
2022-09-11T20:49:42.344Z,98020.00
2022-09-11T20:54:44.546Z,98017.19
2022-09-11T20:59:46.437Z,98021.22
2022-09-11T21:04:48.988Z,98025.38
2022-09-11T21:09:50.567Z,98018.78
2022-09-11T21:14:52.095Z,98021.81
2022-09-11T21:19:57.287Z,98017.00
2022-09-11T21:24:59.128Z,98014.50
2022-09-11T21:30:00.713Z,98016.03
2022-09-11T21:35:02.249Z,98012.50
2022-09-11T21:40:04.840Z,98017.72
2022-09-11T21:45:06.770Z,98007.28
2022-09-11T21:50:08.817Z,98011.88
2022-09-11T21:55:11.365Z,98022.38
2022-09-11T22:00:14.076Z,98009.41
2022-09-11T22:05:15.825Z,98013.31
2022-09-11T22:10:17.432Z,98019.94
2022-09-11T22:15:19.047Z,98017.19
2022-09-11T22:20:20.920Z,98021.25
2022-09-11T22:25:22.437Z,98022.72
2022-09-11T22:30:24.066Z,98018.56
2022-09-11T22:35:26.791Z,98012.00
2022-09-11T22:40:28.380Z,98016.00
2022-09-11T22:45:30.449Z,98011.84
2022-09-11T22:50:33.287Z,98006.66
2022-09-11T22:55:34.828Z,98011.47
2022-09-11T23:00:36.712Z,98010.81
2022-09-11T23:05:56.868Z,98009.34
2022-09-11T23:11:01.049Z,98006.53
2022-09-11T23:16:18.219Z,98010.78
2022-09-11T23:21:19.850Z,98005.34
2022-09-11T23:26:22.729Z,98001.75
2022-09-11T23:31:28.581Z,98010.59
2022-09-11T23:36:30.782Z,98010.63
2022-09-11T23:41:33.747Z,98006.56
2022-09-11T23:46:35.285Z,98003.69
2022-09-11T23:51:36.825Z,97995.31
2022-09-11T23:56:38.371Z,97990.66
